Detall de PIREP

Printer-friendly versionPDF version

[2014/10/05 11:10:00]
Flight IATA:CT3111
Pilot Number:012
Company ICAO:CAT
Aircraft Type:MD11/E
PAX:190
Aircraft Registration:PAX
Departing Airport: LEPA
Destination Airport: LEBL
Alternate Airport:LEPA
Online: VATSIM
Route:ESPOR W2 NEPAL
Flight Level:F180
No Slew and time accel
No pause
Crash detect
Detect pilot in Cockpit between each 30 and 45 minutes
11:10 Zero fuel Weight: 365637 Lbs, Fuel Weight: 31902 Lbs
11:10 VATSIM:LEPA 051100Z 07007KT 9999 FEW025 FEW028CB 21/19 Q1017 TEMPO 4000 TSRA
11:10 VATSIM:LEBL 051100Z 10005KT 040V140 9999 FEW018 21/16 Q1017 NOSIG
11:10 FC BARCELONA CHAMPIONS CUP
11:12 Parking Brakes off
11:17 Take-off
11:17 Take off Weight: 396302 Lbs
11:17 Wind: 076º @ 007 Knots Heading: 238º
11:17 POS N39º 33´ 15´´ E002º 43´ 32´´
11:17 Gear Up: 202 Knots
11:17 Flaps:3 at 202 Knots
11:18 Flaps:2 at 192 Knots
11:18 Flaps:3 at 194 Knots
11:18 Flaps:2 at 196 Knots
11:18 Flaps:1 at 197 Knots
11:18 Flaps:0 at 202 Knots
11:18 Flaps:1 at 204 Knots
11:18 Flaps:0 at 205 Knots
11:22 TOC
11:22 Fuel Weight: 26868 Lb
11:30 TOD
11:30 Fuel Weight: 24550 Lb
11:32 Wind:319º@024 Knots Heading: 337º Ground Speed: 351 Knots Altitude 16873 ft
11:40 Flaps:1 at 235 Knots
11:41 Flaps:2 at 232 Knots
11:41 Flaps:3 at 230 Knots
11:42 Flaps:4 at 197 Knots
11:42 Flaps:3 at 198 Knots
11:42 Flaps:4 at 198 Knots
11:42 Flaps:5 at 198 Knots
11:42 Flaps:6 at 196 Knots
11:42 Gear Down: 188 Knots
11:43 Flaps:7 at 173 Knots
11:47 Wind:054º@005 Knots Heading: 242º Ground Speed: 177 Knots Altitude 964 ft
11:48 TouchDown:Rate -207 ft/min Speed: 152 Knots
11:48 VATSIM:LEBL 051130Z 11007KT 9999 FEW020 21/16 Q1017 NOSIG
11:48 Land
11:48 Wind:078º@005 Knots
11:48 Heading: 249º
11:48 Flight Duration: 00:31
11:48 Landing Weight: 386727 Lbs
11:48 POS N41º 17´ 46´´ E002º 04´ 34´´
11:50 Parking brakes on
11:50 Block to Block Duration: 00:38
11:50 Final Fuel: 20879 Lbls
11:50 Spent Fuel: 11022 Lbls
11:50 Flight Length: 152 NM
11:50 TOD Land Length: 79 NM

Exportar CSV

Powered by Drupal - Modified by Danger4k